Terminal Aerodrome Forecast
Issued by NWS Mt. Holly, NJ

Current Version | Previous Version | Text Only | Print | Product List | Glossary On
Versions: 1 2 3 4 5 6 7 8 9 10 11 12 13 14 15 16 17
602
FTUS41 KPHI 161137
TAFTTN
TAF
KTTN 161137Z 1612/1712 09004KT P6SM OVC025
     FM161700 15004KT P6SM SCT015 BKN025
     FM170100 09004KT P6SM OVC015
     FM170500 04004KT 1SM -SN OVC005
     FM171100 34008KT 2SM -SN OVC008=

USA.gov is the U.S. government's official web portal to all federal, state and local government web resources and services.